Time;durP1;ratioP1;P1;durP2;ratioP2;P2;SDS_P1;SDS_P2;PMS_P1;PMS_P2;Temp;Humidity;BMP_temperature;BMP_pressure;BME280_temperature;BME280_humidity;BME280_pressure;Samples;Min_cycle;Max_cycle;Signal;HPM_P1;HPM_P2
2022/09/09 00:02:19;;;;;;;;;;;;;;;-144.99;100.00;52297.25;5085595;28;19935;-74
2022/09/09 00:04:49;;;;;;;;;;;;;;;-144.99;100.00;52293.19;5082593;28;19955;-74
2022/09/09 00:07:21;;;;;;;;;;;;;;;-144.99;100.00;52315.59;5085187;28;20276;-74
2022/09/09 00:09:49;;;;;;;;;;;;;;;-144.99;100.00;52313.56;5086785;28;19932;-73
2022/09/09 00:12:18;;;;;;;;;;;;;;;-144.99;100.00;52323.75;5085355;28;19927;-72
2022/09/09 00:14:50;;;;;;;;;;;;;;;-144.99;100.00;52346.19;5085804;28;20300;-74
2022/09/09 00:17:22;;;;;;;;;;;;;;;-144.99;100.00;52301.34;5081411;28;19927;-73
2022/09/09 00:19:53;;;;;;;;;;;;;;;-144.99;100.00;52352.28;5086539;28;19928;-72
2022/09/09 00:22:21;;;;;;;;;;;;;;;-144.99;100.00;52333.94;5086178;28;20005;-74
2022/09/09 00:24:49;;;;;;;;;;;;;;;-144.99;100.00;52327.84;5085901;28;20039;-74
2022/09/09 00:27:19;;;;;;;;;;;;;;;-144.99;100.00;52305.41;5084816;28;19928;-74
2022/09/09 00:29:53;;;;;;;;;;;;;;;-144.99;100.00;52301.34;5083716;28;19932;-75
2022/09/09 00:32:20;;;;;;;;;;;;;;;-144.99;100.00;52321.72;5083926;28;19950;-75
2022/09/09 00:34:50;;;;;;;;;;;;;;;-144.99;100.00;52285.03;5086265;28;19924;-74
2022/09/09 00:37:17;;;;;;;;;;;;;;;-144.99;100.00;52305.41;5084436;28;19924;-75
2022/09/09 00:39:46;;;;;;;;;;;;;;;-144.99;100.00;52301.34;5081463;28;20391;-74
2022/09/09 00:42:15;;;;;;;;;;;;;;;-144.99;100.00;52301.34;5085041;28;20316;-70
2022/09/09 00:44:51;;;;;;;;;;;;;;;-144.99;100.00;52338.03;5086288;28;20266;-73
2022/09/09 00:47:26;;;;;;;;;;;;;;;-144.99;100.00;52297.25;5082248;28;20291;-73
2022/09/09 00:50:00;;;;;;;;;;;;;;;-144.99;100.00;52311.53;5086080;28;19924;-74
2022/09/09 00:52:31;;;;;;;;;;;;;;;-144.99;100.00;52299.31;5085978;28;19924;-74
2022/09/09 00:55:02;;;;;;;;;;;;;;;-144.99;100.00;52331.91;5085860;28;19924;-74
2022/09/09 00:57:31;;;;;;;;;;;;;;;-144.99;100.00;52305.41;5083924;28;19928;-75
2022/09/09 00:59:59;;;;;;;;;;;;;;;-144.99;100.00;52317.66;5086518;28;19924;-74
2022/09/09 01:02:32;;;;;;;;;;;;;;;-144.99;100.00;52280.97;5083625;28;19924;-74
2022/09/09 01:05:02;;;;;;;;;;;;;;;-144.99;100.00;52285.03;5080272;28;20401;-74
2022/09/09 01:07:28;;;;;;;;;;;;;;;-144.99;100.00;52350.25;5078014;28;19931;-75
2022/09/09 01:09:58;;;;;;;;;;;;;;;-144.99;100.00;52321.72;5086022;28;19925;-74
2022/09/09 01:12:26;;;;;;;;;;;;;;;-144.99;100.00;52350.25;5078660;28;19925;-74
2022/09/09 01:14:57;;;;;;;;;;;;;;;-144.99;100.00;52305.41;5080987;28;20408;-73
2022/09/09 01:17:25;;;;;;;;;;;;;;;-144.99;100.00;52260.56;5083872;28;19928;-77
2022/09/09 01:20:04;;;;;;;;;;;;;;;-144.99;100.00;52329.88;5086608;28;20425;-76
2022/09/09 01:22:35;;;;;;;;;;;;;;;-144.99;100.00;52309.50;5085860;28;19983;-76
2022/09/09 01:25:20;;;;;;;;;;;;;;;-144.99;100.00;52325.81;5081008;28;19924;-73
2022/09/09 01:27:49;;;;;;;;;;;;;;;-144.99;100.00;52291.16;5083015;28;19935;-74
2022/09/09 01:30:16;;;;;;;;;;;;;;;-144.99;100.00;52323.75;5086421;28;20399;-76
2022/09/09 01:32:44;;;;;;;;;;;;;;;-144.99;100.00;52331.91;5083536;28;19946;-75
2022/09/09 01:35:12;;;;;;;;;;;;;;;-144.99;100.00;52280.97;5083919;28;20371;-73
2022/09/09 01:37:38;;;;;;;;;;;;;;;-144.99;100.00;52301.34;5088730;28;19932;-74
2022/09/09 01:40:05;;;;;;;;;;;;;;;-144.99;100.00;52289.13;5090376;28;19928;-72
2022/09/09 01:42:31;;;;;;;;;;;;;;;-144.99;100.00;52301.34;5088942;28;20379;-75
2022/09/09 01:44:59;;;;;;;;;;;;;;;-144.99;100.00;52317.66;5088205;28;20371;-75
2022/09/09 01:47:26;;;;;;;;;;;;;;;-144.99;100.00;52342.09;5087979;28;19931;-74
2022/09/09 01:49:52;;;;;;;;;;;;;;;-144.99;100.00;52333.94;5089977;28;19935;-72
2022/09/09 01:52:19;;;;;;;;;;;;;;;-144.99;100.00;52287.06;5088826;28;20278;-75
2022/09/09 01:54:45;;;;;;;;;;;;;;;-144.99;100.00;52301.34;5087486;28;19924;-73
2022/09/09 01:57:16;;;;;;;;;;;;;;;-144.99;100.00;52305.41;5088706;28;19935;-74
2022/09/09 01:59:54;;;;;;;;;;;;;;;-144.99;100.00;52280.97;5087832;28;19928;-75
2022/09/09 02:02:25;;;;;;;;;;;;;;;-144.99;100.00;52321.72;5086945;28;19931;-74
2022/09/09 02:04:53;;;;;;;;;;;;;;;-144.99;100.00;52305.41;5088245;28;20786;-74
2022/09/09 02:07:34;;;;;;;;;;;;;;;-144.99;100.00;52291.16;5087592;28;19924;-72
2022/09/09 02:10:06;;;;;;;;;;;;;;;-144.99;100.00;52309.50;5086724;28;20481;-75
2022/09/09 02:12:32;;;;;;;;;;;;;;;-144.99;100.00;52311.53;5087626;28;19950;-76
2022/09/09 02:15:03;;;;;;;;;;;;;;;-144.99;100.00;52317.66;5089287;28;19954;-75
2022/09/09 02:17:33;;;;;;;;;;;;;;;-144.99;100.00;52342.09;5080790;28;19985;-72
2022/09/09 02:20:03;;;;;;;;;;;;;;;-144.99;100.00;52297.25;5089317;28;19928;-74
2022/09/09 02:22:34;;;;;;;;;;;;;;;-144.99;100.00;52336.00;5088601;28;19928;-74
2022/09/09 02:25:01;;;;;;;;;;;;;;;-144.99;100.00;52295.22;5089496;28;19924;-74
2022/09/09 02:27:28;;;;;;;;;;;;;;;-144.99;100.00;52362.50;5079660;28;20163;-74
2022/09/09 02:29:57;;;;;;;;;;;;;;;-144.99;100.00;52313.56;5097116;28;20343;-70
2022/09/09 02:32:24;;;;;;;;;;;;;;;-144.99;100.00;52338.03;5099762;28;19924;-74
2022/09/09 02:34:54;;;;;;;;;;;;;;;-144.99;100.00;52325.81;5090069;28;20295;-72
2022/09/09 02:37:22;;;;;;;;;;;;;;;-144.99;100.00;52338.03;5079820;28;19997;-73
2022/09/09 02:39:49;;;;;;;;;;;;;;;-144.99;100.00;52350.25;5083196;28;20540;-71
2022/09/09 02:42:15;;;;;;;;;;;;;;;-144.99;100.00;52329.88;5087662;28;20444;-73
2022/09/09 02:44:42;;;;;;;;;;;;;;;-144.99;100.00;52333.94;5088608;28;19925;-69
2022/09/09 02:47:14;;;;;;;;;;;;;;;-144.99;100.00;52313.56;5084510;28;19924;-73
2022/09/09 02:49:44;;;;;;;;;;;;;;;-144.99;100.00;52342.09;5082193;28;19924;-74
2022/09/09 02:52:16;;;;;;;;;;;;;;;-144.99;100.00;52309.50;5085608;22;19931;-72
2022/09/09 02:54:43;;;;;;;;;;;;;;;-144.99;100.00;52358.41;5046529;28;20348;-73
2022/09/09 02:57:12;;;;;;;;;;;;;;;-144.99;100.00;52327.84;5051448;28;20055;-70
2022/09/09 02:59:38;;;;;;;;;;;;;;;-144.99;100.00;52319.69;5056136;28;19928;-72
2022/09/09 03:02:05;;;;;;;;;;;;;;;-144.99;100.00;52336.00;5068375;28;19924;-73
2022/09/09 03:04:31;;;;;;;;;;;;;;;-144.99;100.00;52333.94;5074163;28;19932;-72
2022/09/09 03:06:58;;;;;;;;;;;;;;;-144.99;100.00;52325.81;5076626;28;19964;-70
2022/09/09 03:09:26;;;;;;;;;;;;;;;-144.99;100.00;52329.88;5056336;28;19928;-72
2022/09/09 03:11:54;;;;;;;;;;;;;;;-144.99;100.00;52338.03;5078857;28;19989;-71
2022/09/09 03:14:24;;;;;;;;;;;;;;;-144.99;100.00;52338.03;5077379;28;19954;-73
2022/09/09 03:16:50;;;;;;;;;;;;;;;-144.99;100.00;52356.38;5064012;28;19939;-72
2022/09/09 03:19:18;;;;;;;;;;;;;;;-144.99;100.00;52336.00;5071905;28;19924;-72
2022/09/09 03:21:44;;;;;;;;;;;;;;;-144.99;100.00;52313.56;5077222;28;19932;-70
2022/09/09 03:24:11;;;;;;;;;;;;;;;-144.99;100.00;52323.75;5070610;28;19952;-71
2022/09/09 03:26:40;;;;;;;;;;;;;;;-144.99;100.00;52346.19;5071645;28;19925;-72
2022/09/09 03:29:07;;;;;;;;;;;;;;;-144.99;100.00;52342.09;5079138;28;20356;-73
2022/09/09 03:31:33;;;;;;;;;;;;;;;-144.99;100.00;52329.88;5083554;28;19947;-73
2022/09/09 03:34:00;;;;;;;;;;;;;;;-144.99;100.00;52333.94;5066122;28;20079;-74
2022/09/09 03:36:27;;;;;;;;;;;;;;;-144.99;100.00;52305.41;5083602;28;20295;-75
2022/09/09 03:38:54;;;;;;;;;;;;;;;-144.99;100.00;52354.34;5075929;28;19925;-75
2022/09/09 03:41:23;;;;;;;;;;;;;;;-144.99;100.00;52333.94;5082543;28;19928;-75
2022/09/09 03:43:51;;;;;;;;;;;;;;;-144.99;100.00;52350.25;5081275;28;19924;-75
2022/09/09 03:46:18;;;;;;;;;;;;;;;-144.99;100.00;52329.88;5066326;28;19928;-74
2022/09/09 03:48:44;;;;;;;;;;;;;;;-144.99;100.00;52362.50;5066591;28;19934;-73
2022/09/09 03:51:10;;;;;;;;;;;;;;;-144.99;100.00;52348.22;5079016;28;20276;-72
2022/09/09 03:53:38;;;;;;;;;;;;;;;-144.99;100.00;52321.72;5070950;28;19928;-74
2022/09/09 03:56:06;;;;;;;;;;;;;;;-144.99;100.00;52333.94;5070402;28;19974;-71
2022/09/09 03:58:33;;;;;;;;;;;;;;;-144.99;100.00;52342.09;5073569;28;19931;-71
2022/09/09 04:01:03;;;;;;;;;;;;;;;-144.99;100.00;52287.06;5066082;28;19932;-70
2022/09/09 04:03:29;;;;;;;;;;;;;;;-144.99;100.00;52329.88;5071676;28;20290;-70
2022/09/09 04:05:57;;;;;;;;;;;;;;;-144.99;100.00;52329.88;5078830;28;19928;-72
2022/09/09 04:08:25;;;;;;;;;;;;;;;-144.99;100.00;52342.09;5070547;28;20569;-71
2022/09/09 04:10:51;;;;;;;;;;;;;;;-144.99;100.00;52329.88;5054581;28;20051;-71
2022/09/09 04:13:19;;;;;;;;;;;;;;;-144.99;100.00;52336.00;5071759;28;19931;-71
2022/09/09 04:15:51;;;;;;;;;;;;;;;-144.99;100.00;52354.34;5063577;28;19968;-71
2022/09/09 04:18:19;;;;;;;;;;;;;;;-144.99;100.00;52338.03;5068717;28;19928;-74
2022/09/09 04:20:46;;;;;;;;;;;;;;;-144.99;100.00;52329.88;5071518;28;20420;-73
2022/09/09 04:23:13;;;;;;;;;;;;;;;-144.99;100.00;52319.69;5072600;28;20307;-73
2022/09/09 04:25:44;;;;;;;;;;;;;;;-144.99;100.00;52325.81;5063983;28;19929;-72
2022/09/09 04:28:11;;;;;;;;;;;;;;;-144.99;100.00;52358.41;5075425;28;19932;-72
2022/09/09 04:30:39;;;;;;;;;;;;;;;-144.99;100.00;52344.16;5077374;28;20473;-73
2022/09/09 04:33:05;;;;;;;;;;;;;;;-144.99;100.00;52350.25;5067869;28;20360;-72
2022/09/09 04:35:34;;;;;;;;;;;;;;;-144.99;100.00;52346.19;5072768;28;19946;-72
2022/09/09 04:38:02;;;;;;;;;;;;;;;-144.99;100.00;52321.72;5067074;28;19925;-72
2022/09/09 04:40:29;;;;;;;;;;;;;;;-144.99;100.00;52317.66;5065923;28;20273;-73
2022/09/09 04:42:55;;;;;;;;;;;;;;;-144.99;100.00;52327.84;5078578;28;19924;-72
2022/09/09 04:45:21;;;;;;;;;;;;;;;-144.99;100.00;52329.88;5072916;28;19932;-71
2022/09/09 04:47:48;;;;;;;;;;;;;;;-144.99;100.00;52323.75;5070698;28;20427;-76
2022/09/09 04:50:15;;;;;;;;;;;;;;;-144.99;100.00;52350.25;5070056;28;19925;-76
2022/09/09 04:52:43;;;;;;;;;;;;;;;-144.99;100.00;52374.72;5058789;28;19955;-76
2022/09/09 04:55:10;;;;;;;;;;;;;;;-144.99;100.00;52319.69;5074891;28;19930;-73
2022/09/09 04:57:36;;;;;;;;;;;;;;;-144.99;100.00;52317.66;5068401;28;19924;-76
2022/09/09 05:00:03;;;;;;;;;;;;;;;-144.99;100.00;52342.09;5067693;28;19944;-76
2022/09/09 05:02:30;;;;;;;;;;;;;;;-144.99;100.00;52329.88;5064261;28;20379;-72
2022/09/09 05:04:56;;;;;;;;;;;;;;;-144.99;100.00;52348.22;4718696;28;10000269;-75
2022/09/09 05:07:23;;;;;;;;;;;;;;;-144.99;100.00;52325.81;5059096;28;19935;-78
2022/09/09 05:09:50;;;;;;;;;;;;;;;-144.99;100.00;52338.03;5067478;28;19938;-76
2022/09/09 05:12:17;;;;;;;;;;;;;;;-144.99;100.00;52309.50;5074260;28;19928;-75
2022/09/09 05:14:43;;;;;;;;;;;;;;;-144.99;100.00;52327.84;5082756;28;19991;-77
2022/09/09 05:17:10;;;;;;;;;;;;;;;-144.99;100.00;52344.16;5067666;28;19943;-76
2022/09/09 05:19:36;;;;;;;;;;;;;;;-144.99;100.00;52329.88;5079355;28;19928;-77
2022/09/09 05:22:04;;;;;;;;;;;;;;;-144.99;100.00;52327.84;5073533;28;19939;-75
2022/09/09 05:24:32;;;;;;;;;;;;;;;-144.99;100.00;52358.41;5077220;28;20068;-76
2022/09/09 05:27:02;;;;;;;;;;;;;;;-144.99;100.00;52315.59;5061925;28;19940;-75
2022/09/09 05:29:28;;;;;;;;;;;;;;;-144.99;100.00;52362.50;5073009;28;20431;-76
2022/09/09 05:31:55;;;;;;;;;;;;;;;-144.99;100.00;52325.81;5069341;28;19928;-77
2022/09/09 05:34:22;;;;;;;;;;;;;;;-144.99;100.00;52346.19;5078149;28;20015;-77
2022/09/09 05:36:48;;;;;;;;;;;;;;;-144.99;100.00;52346.19;5070150;28;19928;-77
2022/09/09 05:39:14;;;;;;;;;;;;;;;-144.99;100.00;52323.75;5069221;28;19924;-77
2022/09/09 05:41:41;;;;;;;;;;;;;;;-144.99;100.00;52307.47;5067917;28;19925;-75
2022/09/09 05:44:09;;;;;;;;;;;;;;;-144.99;100.00;52346.19;5073344;28;19939;-76
2022/09/09 05:46:35;;;;;;;;;;;;;;;-144.99;100.00;52321.72;5080871;28;20322;-75
2022/09/09 05:49:02;;;;;;;;;;;;;;;-144.99;100.00;52348.22;5079111;28;19935;-75
2022/09/09 05:51:30;;;;;;;;;;;;;;;-144.99;100.00;52305.41;5081595;28;19935;-76
2022/09/09 05:53:58;;;;;;;;;;;;;;;-144.99;100.00;52289.13;5073104;28;19982;-77
2022/09/09 05:56:26;;;;;;;;;;;;;;;-144.99;100.00;52305.41;5081345;28;20375;-76
2022/09/09 05:58:53;;;;;;;;;;;;;;;-144.99;100.00;52342.09;5072423;28;19939;-75
2022/09/09 06:01:22;;;;;;;;;;;;;;;-144.99;100.00;52321.72;5072508;28;20446;-76
2022/09/09 06:03:49;;;;;;;;;;;;;;;-144.99;100.00;52313.56;5069667;28;19929;-75
2022/09/09 06:06:17;;;;;;;;;;;;;;;-144.99;100.00;52342.09;5084877;28;19928;-76
2022/09/09 06:08:45;;;;;;;;;;;;;;;-144.99;100.00;52289.13;5075938;28;19928;-77
2022/09/09 06:11:11;;;;;;;;;;;;;;;-144.99;100.00;52303.38;5068799;28;20345;-75
2022/09/09 06:13:39;;;;;;;;;;;;;;;-144.99;100.00;52305.41;5073784;28;19924;-76
2022/09/09 06:16:07;;;;;;;;;;;;;;;-144.99;100.00;52301.34;5080237;28;19935;-74
2022/09/09 06:18:34;;;;;;;;;;;;;;;-144.99;100.00;52321.72;5075979;28;19939;-76
2022/09/09 06:21:04;;;;;;;;;;;;;;;-144.99;100.00;52307.47;5071086;28;19960;-75
2022/09/09 06:23:30;;;;;;;;;;;;;;;-144.99;100.00;52305.41;5071195;28;20383;-75
2022/09/09 06:26:05;;;;;;;;;;;;;;;-144.99;100.00;52313.56;5072291;28;19947;-75
2022/09/09 06:28:31;;;;;;;;;;;;;;;-144.99;100.00;52323.75;5071794;28;19928;-75
2022/09/09 06:30:58;;;;;;;;;;;;;;;-144.99;100.00;52350.25;5067297;28;19928;-75
2022/09/09 06:33:25;;;;;;;;;;;;;;;-144.99;100.00;52280.97;5062293;28;20194;-74
2022/09/09 06:35:54;;;;;;;;;;;;;;;-144.99;100.00;52303.38;5070104;28;19934;-76
2022/09/09 06:38:21;;;;;;;;;;;;;;;-144.99;100.00;52323.75;5071762;28;20349;-75
2022/09/09 06:40:51;;;;;;;;;;;;;;;-144.99;100.00;52293.19;5069785;28;20027;-74
2022/09/09 06:43:19;;;;;;;;;;;;;;;-144.99;100.00;52313.56;4716042;28;10000546;-76
2022/09/09 06:45:53;;;;;;;;;;;;;;;-144.99;100.00;52313.56;5067278;28;19940;-74
2022/09/09 06:48:19;;;;;;;;;;;;;;;-144.99;100.00;52309.50;5076736;28;20312;-76
2022/09/09 06:50:46;;;;;;;;;;;;;;;-144.99;100.00;52262.63;5073702;28;19932;-76
2022/09/09 06:53:16;;;;;;;;;;;;;;;-144.99;100.00;52317.66;5070243;28;19929;-76
2022/09/09 06:55:44;;;;;;;;;;;;;;;-144.99;100.00;52342.09;5062954;28;19987;-76
2022/09/09 06:58:10;;;;;;;;;;;;;;;-144.99;100.00;52317.66;5078901;28;19928;-76
2022/09/09 07:00:38;;;;;;;;;;;;;;;-144.99;100.00;52301.34;5076644;28;19934;-77
2022/09/09 07:03:05;;;;;;;;;;;;;;;-144.99;100.00;52325.81;5064258;28;19929;-77
2022/09/09 07:05:31;;;;;;;;;;;;;;;-144.99;100.00;52313.56;5067940;28;19943;-75
2022/09/09 07:07:58;;;;;;;;;;;;;;;-144.99;100.00;52285.03;5074068;28;20027;-76
2022/09/09 07:10:26;;;;;;;;;;;;;;;-144.99;100.00;52321.72;5067740;28;20171;-75
2022/09/09 07:12:52;;;;;;;;;;;;;;;-144.99;100.00;52301.34;5067626;28;19931;-76
2022/09/09 07:15:19;;;;;;;;;;;;;;;-144.99;100.00;52280.97;5066491;28;20522;-77
2022/09/09 07:17:46;;;;;;;;;;;;;;;-144.99;100.00;52358.41;5063565;28;19928;-75
2022/09/09 07:20:14;;;;;;;;;;;;;;;-144.99;100.00;52313.56;5083467;28;19947;-77
2022/09/09 07:22:40;;;;;;;;;;;;;;;-144.99;100.00;52309.50;5084639;28;20204;-76
2022/09/09 07:25:07;;;;;;;;;;;;;;;-144.99;100.00;52289.13;5081275;28;19928;-76
2022/09/09 07:27:35;;;;;;;;;;;;;;;-144.99;100.00;52268.72;5079277;28;19935;-72
2022/09/09 07:30:02;;;;;;;;;;;;;;;-144.99;100.00;52225.94;5077656;28;19925;-77
2022/09/09 07:32:30;;;;;;;;;;;;;;;-144.99;100.00;52313.56;5072876;28;19986;-75
2022/09/09 07:34:57;;;;;;;;;;;;;;;-144.99;100.00;52252.44;5063710;28;20308;-76
2022/09/09 07:37:24;;;;;;;;;;;;;;;-144.99;100.00;52240.19;5071967;28;19941;-76
2022/09/09 07:39:51;;;;;;;;;;;;;;;-144.99;100.00;52248.34;5072170;28;19932;-75
2022/09/09 07:42:17;;;;;;;;;;;;;;;-144.99;100.00;52260.56;5060671;28;20151;-76
2022/09/09 07:44:45;;;;;;;;;;;;;;;-144.99;100.00;52266.69;5072114;28;19928;-75
2022/09/09 07:47:11;;;;;;;;;;;;;;;-144.99;100.00;52289.13;5068107;28;19998;-76
2022/09/09 07:49:37;;;;;;;;;;;;;;;-144.99;100.00;52256.50;5073161;28;19935;-75
2022/09/09 07:52:04;;;;;;;;;;;;;;;-144.99;100.00;52276.88;5073719;28;19934;-75
2022/09/09 07:54:32;;;;;;;;;;;;;;;-144.99;100.00;52268.72;5070547;28;19932;-76
2022/09/09 07:56:58;;;;;;;;;;;;;;;-144.99;100.00;52293.19;5088739;28;19939;-75
2022/09/09 07:59:24;;;;;;;;;;;;;;;-144.99;100.00;52248.34;5087537;28;19934;-75
2022/09/09 08:01:54;;;;;;;;;;;;;;;-144.99;100.00;52289.13;5077401;28;19928;-76
2022/09/09 08:04:21;;;;;;;;;;;;;;;-144.99;100.00;52244.28;5066065;28;19997;-76
2022/09/09 08:06:49;;;;;;;;;;;;;;;-144.99;100.00;52236.13;5066623;28;20606;-77
2022/09/09 08:09:15;;;;;;;;;;;;;;;-144.99;100.00;52227.97;5068792;28;19928;-76
2022/09/09 08:11:43;;;;;;;;;;;;;;;-144.99;99.43;52268.72;5060800;28;20451;-76
2022/09/09 08:14:10;;;;;;;;;;;;;;;-144.99;94.30;52232.03;5074957;28;19935;-76
2022/09/09 08:16:38;;;;;;;;;;;;;;;-144.99;94.82;52246.31;5063116;28;19928;-75
2022/09/09 08:19:07;;;;;;;;;;;;;;;-144.99;91.93;52174.97;5068961;28;19938;-75
2022/09/09 08:21:34;;;;;;;;;;;;;;;-144.99;92.07;52223.88;5075852;28;19985;-76
2022/09/09 08:24:01;;;;;;;;;;;;;;;-144.99;91.14;52260.56;5066971;28;19958;-75
2022/09/09 08:26:28;;;;;;;;;;;;;;;-144.99;89.43;52240.19;5063073;28;20302;-76
2022/09/09 08:28:56;;;;;;;;;;;;;;;-144.99;90.61;52250.38;5068059;28;20385;-76
2022/09/09 08:31:23;;;;;;;;;;;;;;;-144.99;92.84;52232.03;5076392;28;19933;-77
2022/09/09 08:33:50;;;;;;;;;;;;;;;-144.99;94.56;52230.00;5059516;28;19933;-78
2022/09/09 08:36:18;;;;;;;;;;;;;;;-144.99;93.03;52254.47;5073960;28;20371;-75
2022/09/09 08:38:47;;;;;;;;;;;;;;;-144.99;90.41;52262.63;5072497;28;19924;-77
2022/09/09 08:41:32;;;;;;;;;;;;;;;-144.99;91.74;52244.28;5071273;28;19935;-76
2022/09/09 08:44:02;;;;;;;;;;;;;;;-144.99;91.60;52223.88;5061993;28;19935;-76
2022/09/09 08:46:35;;;;;;;;;;;;;;;-144.99;91.73;52252.44;5063605;28;20108;-74
2022/09/09 08:49:06;;;;;;;;;;;;;;;-144.99;91.51;52285.03;5069380;28;19959;-75
2022/09/09 08:51:34;;;;;;;;;;;;;;;-144.99;91.68;52244.28;5102618;22;20357;-73
2022/09/09 08:54:02;;;;;;;;;;;;;;;-144.99;91.39;52305.41;5083536;28;19955;-74
2022/09/09 08:56:31;;;;;;;;;;;;;;;-144.99;92.11;52260.56;5077618;28;19932;-71
2022/09/09 08:58:58;;;;;;;;;;;;;;;-144.99;94.47;52305.41;5088245;28;19928;-75
2022/09/09 09:01:33;;;;;;;;;;;;;;;-144.99;94.67;52260.56;5078773;28;19973;-75
2022/09/09 09:04:03;;;;;;;;;;;;;;;-144.99;94.47;52260.56;5091051;28;20021;-74
2022/09/09 09:06:41;;;;;;;;;;;;;;;-144.99;94.53;52301.34;5102518;28;19938;-74
2022/09/09 09:09:11;;;;;;;;;;;;;;;-144.99;96.26;52256.50;5085997;28;19938;-75
2022/09/09 09:11:38;;;;;;;;;;;;;;;-144.99;97.18;52309.50;5087744;28;19928;-73
2022/09/09 09:14:10;;;;;;;;;;;;;;;-144.99;97.43;52234.09;5081179;28;19924;-72
2022/09/09 09:16:39;;;;;;;;;;;;;;;-144.99;98.63;52280.97;5094097;28;19980;-75
2022/09/09 09:19:09;;;;;;;;;;;;;;;-144.99;97.43;52252.44;5084553;28;20358;-76
2022/09/09 09:21:40;;;;;;;;;;;;;;;-144.99;96.14;52276.88;5084859;28;20414;-75
2022/09/09 09:24:08;;;;;;;;;;;;;;;-144.99;95.41;52276.88;5085158;28;19928;-76
2022/09/09 09:26:35;;;;;;;;;;;;;;;-144.99;95.16;52276.88;5091608;28;19938;-74
2022/09/09 09:29:11;;;;;;;;;;;;;;;-144.99;92.87;52297.25;5082027;28;19932;-77
2022/09/09 09:31:38;;;;;;;;;;;;;;;-144.99;90.39;52242.22;5080617;28;20014;-75
2022/09/09 09:34:04;;;;;;;;;;;;;;;-144.99;88.23;52215.75;5088903;28;19927;-75
2022/09/09 09:36:35;;;;;;;;;;;;;;;-144.99;83.15;52203.50;5089454;28;19924;-78
2022/09/09 09:39:05;;;;;;;;;;;;;;;-144.99;75.93;52207.59;5088530;28;20552;-77
2022/09/09 09:41:33;;;;;;;;;;;;;;;-144.99;71.23;52166.81;5078157;28;19928;-77
2022/09/09 09:44:01;;;;;;;;;;;;;;;-144.99;67.17;52166.81;5087221;28;19935;-77
2022/09/09 09:46:27;;;;;;;;;;;;;;;-144.99;65.00;52158.66;5084961;28;19928;-78
2022/09/09 09:48:57;;;;;;;;;;;;;;;-144.99;63.66;52162.75;5085128;28;19935;-75
2022/09/09 09:51:24;;;;;;;;;;;;;;;-144.99;60.79;52134.22;5083300;28;19951;-77
2022/09/09 09:53:52;;;;;;;;;;;;;;;-144.99;57.44;52115.88;5082382;28;19981;-78
2022/09/09 09:56:27;;;;;;;;;;;;;;;-144.99;54.36;52138.28;5085589;28;19935;-77
2022/09/09 09:58:54;;;;;;;;;;;;;;;-144.99;52.73;52136.25;5091447;28;20236;-75
2022/09/09 10:01:24;;;;;;;;;;;;;;;-144.99;51.50;52183.13;5087156;28;19943;-74
2022/09/09 10:03:51;;;;;;;;;;;;;;;-144.99;51.39;52097.53;5086443;28;20037;-76
2022/09/09 10:06:18;;;;;;;;;;;;;;;-144.99;50.88;52138.28;5089363;28;19938;-77
2022/09/09 10:08:46;;;;;;;;;;;;;;;-144.99;49.57;52166.81;5089744;28;20074;-76
2022/09/09 10:11:33;;;;;;;;;;;;;;;-144.99;49.32;52154.59;5077078;28;19975;-72
2022/09/09 10:14:06;;;;;;;;;;;;;;;-144.99;49.05;52121.97;5085640;28;19928;-74
2022/09/09 10:16:40;;;;;;;;;;;;;;;-144.99;49.73;52179.06;5093956;28;20271;-73
2022/09/09 10:19:12;;;;;;;;;;;;;;;-144.99;50.86;52126.06;5090273;28;19950;-73
2022/09/09 10:21:46;;;;;;;;;;;;;;;-144.99;51.18;52174.97;5091763;28;19924;-73
2022/09/09 10:24:27;;;;;;;;;;;;;;;-144.99;50.24;52121.97;5100835;28;19928;-73
2022/09/09 10:26:57;;;;;;;;;;;;;;;-144.99;50.34;52138.28;5097427;28;20531;-73
2022/09/09 10:29:39;;;;;;;;;;;;;;;-144.99;50.07;52105.69;5109513;28;20042;-72
2022/09/09 10:32:14;;;;;;;;;;;;;;;-144.99;50.45;52113.84;5091733;28;19934;-76
2022/09/09 10:34:49;;;;;;;;;;;;;;;-144.99;47.90;52075.09;5092709;28;19924;-74
2022/09/09 10:37:23;;;;;;;;;;;;;;;-144.99;45.93;52040.47;5096190;28;20516;-75
2022/09/09 10:39:57;;;;;;;;;;;;;;;-144.99;45.22;52044.53;5099735;28;19981;-75
2022/09/09 10:42:28;;;;;;;;;;;;;;;-144.99;45.12;52048.63;5092591;28;19939;-76
2022/09/09 10:45:04;;;;;;;;;;;;;;;-144.99;44.16;51999.69;5096455;28;19924;-74
2022/09/09 10:47:50;;;;;;;;;;;;;;;-144.99;43.79;52162.75;5085996;28;19938;-76
2022/09/09 10:50:27;;;;;;;;;;;;;;;-144.99;44.73;52044.53;5090225;28;19934;-75
2022/09/09 10:53:01;;;;;;;;;;;;;;;-144.99;44.16;51975.25;5082134;28;20007;-77
2022/09/09 10:55:31;;;;;;;;;;;;;;;-144.99;43.50;52162.75;5087427;28;19928;-76
2022/09/09 10:57:59;;;;;;;;;;;;;;;-144.99;45.01;52215.75;5089842;28;19928;-77
2022/09/09 11:00:32;;;;;;;;;;;;;;;-144.99;46.83;52199.44;5093311;28;20374;-78
2022/09/09 11:03:01;;;;;;;;;;;;;;;-144.99;48.06;52232.03;5076018;28;19935;-76
2022/09/09 11:05:30;;;;;;;;;;;;;;;-144.99;48.93;52260.56;5087161;28;19928;-75
2022/09/09 11:07:59;;;;;;;;;;;;;;;-144.99;49.75;52089.38;5114779;28;19954;-77
2022/09/09 11:10:28;;;;;;;;;;;;;;;-144.99;49.44;52064.91;5093812;28;19928;-74
2022/09/09 11:12:57;;;;;;;;;;;;;;;-144.99;49.06;52062.88;5084843;28;19954;-78
2022/09/09 11:15:29;;;;;;;;;;;;;;;-144.99;48.40;52211.66;5085447;28;20019;-77
2022/09/09 11:17:57;;;;;;;;;;;;;;;-144.99;48.44;52195.34;5088074;28;19935;-77
2022/09/09 11:20:26;;;;;;;;;;;;;;;-144.99;48.61;52056.78;5090109;28;19928;-77
2022/09/09 11:22:56;;;;;;;;;;;;;;;-144.99;48.19;52003.78;5081110;28;20010;-77
2022/09/09 11:25:26;;;;;;;;;;;;;;;-144.99;47.26;52044.53;5086733;28;19924;-76
2022/09/09 11:27:59;;;;;;;;;;;;;;;-144.99;47.61;52075.09;5094124;28;19931;-76
2022/09/09 11:30:32;;;;;;;;;;;;;;;-144.99;48.37;52211.66;5085343;28;19978;-76
2022/09/09 11:33:16;;;;;;;;;;;;;;;-144.99;49.13;52142.38;5077120;28;19924;-73
2022/09/09 11:35:51;;;;;;;;;;;;;;;-144.99;47.99;52219.81;5078985;28;19951;-74
2022/09/09 11:38:21;;;;;;;;;;;;;;;-144.99;47.93;52223.88;5085214;28;20464;-78
2022/09/09 11:40:48;;;;;;;;;;;;;;;-144.99;48.66;52040.47;5090321;28;19928;-75
2022/09/09 11:43:15;;;;;;;;;;;;;;;-144.99;47.59;52073.06;5078867;28;19935;-75
2022/09/09 11:45:43;;;;;;;;;;;;;;;-144.99;47.49;52040.47;5084460;28;20430;-75
2022/09/09 11:48:23;;;;;;;;;;;;;;;-144.99;46.37;52152.56;5088602;28;19934;-75
2022/09/09 11:51:00;;;;;;;;;;;;;;;-144.99;46.41;52081.22;5092051;28;20227;-75
2022/09/09 11:53:27;;;;;;;;;;;;;;;-144.99;45.79;52215.75;5087197;28;19924;-75
2022/09/09 11:56:04;;;;;;;;;;;;;;;-144.99;44.68;52077.16;5083881;28;19995;-75
2022/09/09 11:58:35;;;;;;;;;;;;;;;-144.99;45.39;52077.16;5095885;28;19946;-76
2022/09/09 12:01:01;;;;;;;;;;;;;;;-144.99;45.15;52011.94;5083029;28;19928;-75
2022/09/09 12:03:37;;;;;;;;;;;;;;;-144.99;44.49;52032.31;5089169;28;19927;-74
2022/09/09 12:06:13;;;;;;;;;;;;;;;-144.99;43.78;52011.94;5082761;28;20132;-75
2022/09/09 12:08:42;;;;;;;;;;;;;;;-144.99;43.62;52024.16;5088967;28;19928;-77
2022/09/09 12:11:08;;;;;;;;;;;;;;;-144.99;44.00;52174.97;5075093;28;20217;-75
2022/09/09 12:13:34;;;;;;;;;;;;;;;-144.99;44.30;51997.66;5082817;28;19924;-73
2022/09/09 12:16:02;;;;;;;;;;;;;;;-144.99;44.39;52191.28;5081175;28;19928;-73
2022/09/09 12:18:33;;;;;;;;;;;;;;;-144.99;45.55;52183.13;5082379;28;19928;-77
2022/09/09 12:21:06;;;;;;;;;;;;;;;-144.99;46.15;52213.69;5086823;28;19950;-77
2022/09/09 12:23:37;;;;;;;;;;;;;;;-144.99;47.61;52223.88;5088118;28;19928;-77
2022/09/09 12:26:22;;;;;;;;;;;;;;;-144.99;49.75;52252.44;5077500;28;20391;-77
2022/09/09 12:28:53;;;;;;;;;;;;;;;-144.99;50.09;52258.53;5079195;28;19939;-75
2022/09/09 12:31:23;;;;;;;;;;;;;;;-144.99;51.26;52244.28;5081514;28;19932;-76